Historyczne dane pomiarowe

Dodano dane terminowe – wersja testowa.

Dane z okresu 1951-2019

Wersja bazy: 1.34 [2019-03-16, lista zmian], aktualizacja planowana na 2019-04-15

Dane meteo z obszaru Polski uzyskane na podstawie danych udostępnionych przez Instytut Meteorologii i Gospodarki Wodnej – Państwowy Instytut Badawczy.

 

Wybierz Datę:    

       

TemperaturaWilgotnośćWiatrCiśnienieOpadyŚniegCzas trwania zjawisk
 Stacja t tx tn tng RH VA  wxwx mslp ppp RRR   cm mm wxwxwxwxwxwxwx
1999-08-14 14.1 19.5 9.6 3.9 88.5- 6.7 2.7---- 0.0------------
1999-08-13 17.2 21.6 13.7 10.1 74.5- 2.0 2.3---- 0.4------------
1999-08-12 16.9 21.1 13.3 11.6 75.5- 2.7 2.0---- 0.0------------
1999-08-11 18.5 23.3 15.2 14.0 89.5- 5.3 3.7---- 1.7------------
1999-08-10 20.0 28.1 14.2 9.9 76.3- 4.7 2.7---- 3.9------------
1999-08-09 20.7 28.1 13.9 12.4 83.5- 6.7 3.0---- 0.0------------
1999-08-08 17.4 23.3 11.5 7.2 90.0- 7.3 3.3---- 22.4------------
1999-08-07 19.9 28.4 9.5 5.5 66.5- 3.3 3.0---- 0.0------------
1999-08-06 19.3 28.8 8.7 5.5 64.3- 2.7 1.3---- 0.0------------
1999-08-05 18.1 27.3 7.6 3.7 66.0- 0.7 1.7---- 0.0------------
1999-08-04 17.6 26.1 10.3 5.6 72.3- 0.7 1.3---- 0.0------------
1999-08-03 17.4 25.1 8.5 3.1 68.0- 2.0 1.7---- 0.0------------
1999-08-02 18.2 25.7 10.8 4.3 57.8- 0.0 1.3---- 0.0------------
1999-08-01 18.5 24.5 11.2 4.8 56.5- 0.0 3.7---- 0.0------------
1999-07-31 19.6 25.7 12.8 6.0 51.3- 0.0 3.7---- 0.0------------
1999-07-30 18.2 24.7 10.3 3.6 61.5- 1.3 5.7---- 0.0------------
1999-07-29 17.9 23.4 10.2 4.0 65.0- 1.3 3.3---- 0.0------------
1999-07-28 18.2 23.2 13.3 10.0 62.3- 4.0 2.7---- 0.0------------
1999-07-27 18.3 23.6 12.9 12.4 66.8- 2.0 3.3---- 0.0------------
1999-07-26 20.2 26.2 13.6 9.7 73.5- 2.0 3.3---- 4.9------------
1999-07-25 18.9 25.2 10.8 5.3 76.3- 1.3 1.7---- 0.0------------
1999-07-24 18.1 23.6 10.1 8.9 73.0- 0.0 3.3---- 0.0------------
1999-07-23 15.0 20.6 7.1 2.7 76.5- 1.3 2.0---- 0.0------------
1999-07-22 18.7 22.3 14.3 11.7 74.5- 2.0 2.7---- 0.0------------
1999-07-21 19.4 28.9 10.7 7.8 75.8- 4.0 3.0---- 5.5------------
1999-07-20 20.4 27.0 12.4 7.6 69.3- 0.0 1.3---- 0.0------------
1999-07-19 20.3 26.2 12.6 9.0 72.5- 0.0 2.3---- 0.0------------
1999-07-18 17.6 24.8 7.9 3.2 73.0- 2.0 2.0---- 0.0------------
1999-07-17 15.9 22.3 6.6 2.3 78.8- 1.3 1.3---- 0.0------------
1999-07-16 16.0 20.3 11.7 6.5 74.0- 1.3 4.3---- 0.0------------
1999-07-15 17.6 23.7 14.9 13.5 87.5- 5.3 3.3---- 8.4------------
1999-07-14 21.9 25.6 17.3 14.2 81.5- 6.0 3.3---- 8.6------------
1999-07-13 22.1 28.8 13.2 8.9 60.3- 0.7 3.0---- 0.0------------
1999-07-12 21.6 28.4 11.0 5.3 60.3- 0.7 2.3---- 0.0------------
1999-07-11 21.2 26.9 12.7 7.5 50.5- 0.0 2.7---- 0.0------------
1999-07-10 19.8 25.4 12.8 6.2 54.0- 0.0 3.7---- 0.0------------
1999-07-09 19.7 24.7 15.4 13.8 70.0- 1.3 5.7---- 0.0------------
1999-07-08 19.6 22.8 16.8 13.9 86.0- 6.7 5.0---- 1.0------------
1999-07-07 21.0 27.3 17.5 15.6 81.3- 6.0 4.3---- 0.0------------
1999-07-06 25.5 31.4 19.0 14.5 63.8- 1.3 2.7---- 0.0------------
1999-07-05 24.7 31.5 16.8 13.7 67.3- 0.0 2.3---- 0.0------------
1999-07-04 21.3 28.9 12.0 8.2 70.5- 0.7 2.0---- 0.0------------
1999-07-03 18.5 24.6 9.6 5.2 69.0- 2.7 1.3---- 0.0------------
1999-07-02 18.8 23.9 12.6 9.5 80.0- 1.3 3.3---- 0.0------------
1999-07-01 19.9 25.8 10.5 5.5 72.0- 0.0 2.0---- 0.0------------
1999-06-30 17.0 23.2 6.5 2.7 64.8- 0.7 2.7---- 0.0------------
1999-06-29 19.9 25.2 14.3 10.3 74.5- 0.7 3.7---- 0.0------------
1999-06-28 20.8 27.0 10.0 5.3 72.5- 0.7 2.7---- 0.0------------
1999-06-27 18.4 24.1 9.0 4.3 61.3- 0.0 2.7---- 0.0------------
1999-06-26 12.4 19.5 3.5 0.3 83.8- 4.0 2.3---- 0.0------------
1999-06-25 12.1 13.2 10.7 9.9 90.0- 4.0 5.0---- 2.8------------
1999-06-24 12.3 13.9 11.0 9.7 86.3- 6.7 2.7---- 7.0------------
1999-06-23 13.9 17.0 11.9 11.9 94.5- 8.0 5.7---- 9.1------------
1999-06-22 17.0 21.8 14.4 13.6 89.5- 6.7 3.7---- 9.5------------
1999-06-21 19.4 23.6 16.0 11.9 81.5- 6.7 2.7---- 0.5------------
1999-06-20 21.2 26.3 14.3 9.8 73.3- 0.0 2.7---- 0.0------------
1999-06-19 20.8 29.0 14.7 11.6 78.3- 1.3 2.3---- 2.4------------
1999-06-18 19.2 23.5 15.9 14.3 87.5- 4.0 3.7---- 0.0------------
1999-06-17 19.3 24.9 15.7 13.9 84.5- 4.7 3.0---- 34.9------------
1999-06-16 18.7 22.3 16.2 14.3 88.5- 2.7 3.7---- 0.0------------
374.8 ms

 

Źródłem pochodzenia danych jest Instytut Meteorologii i Gospodarki Wodnej – Państwowy Instytut Badawczy. Dane Instytutu Meteorologii i Gospodarki Wodnej – Państwowego Instytutu Badawczego zostały przetworzone.

Dane źródłowe można odnaleźć na stronie https://dane.imgw.pl